sensor_id;sensor_type;location;lat;lon;timestamp;P1;durP1;ratioP1;P2;durP2;ratioP2
73672;SDS011;61972;19.480;-99.240;2023-09-19T00:00:57;9.25;;;6.75;;
73672;SDS011;61972;19.480;-99.240;2023-09-19T00:03:24;8.18;;;6.57;;
73672;SDS011;61972;19.480;-99.240;2023-09-19T00:05:50;8.50;;;6.45;;
73672;SDS011;61972;19.480;-99.240;2023-09-19T00:08:17;11.30;;;7.05;;
73672;SDS011;61972;19.480;-99.240;2023-09-19T00:10:47;8.93;;;6.80;;
73672;SDS011;61972;19.480;-99.240;2023-09-19T00:13:13;8.30;;;6.88;;
73672;SDS011;61972;19.480;-99.240;2023-09-19T00:15:40;8.98;;;6.20;;
73672;SDS011;61972;19.480;-99.240;2023-09-19T00:18:13;8.00;;;6.43;;
73672;SDS011;61972;19.480;-99.240;2023-09-19T00:20:46;8.55;;;6.60;;
73672;SDS011;61972;19.480;-99.240;2023-09-19T00:23:14;9.00;;;6.50;;
73672;SDS011;61972;19.480;-99.240;2023-09-19T00:25:40;9.43;;;6.22;;
73672;SDS011;61972;19.480;-99.240;2023-09-19T00:28:07;7.93;;;6.07;;
73672;SDS011;61972;19.480;-99.240;2023-09-19T00:30:36;8.77;;;6.50;;
73672;SDS011;61972;19.480;-99.240;2023-09-19T00:33:03;7.78;;;6.13;;
73672;SDS011;61972;19.480;-99.240;2023-09-19T00:35:32;7.93;;;6.17;;
73672;SDS011;61972;19.480;-99.240;2023-09-19T00:37:58;8.10;;;6.05;;
73672;SDS011;61972;19.480;-99.240;2023-09-19T00:40:24;8.20;;;5.90;;
73672;SDS011;61972;19.480;-99.240;2023-09-19T00:42:51;9.00;;;6.30;;
73672;SDS011;61972;19.480;-99.240;2023-09-19T00:45:22;7.50;;;5.78;;
73672;SDS011;61972;19.480;-99.240;2023-09-19T00:47:49;8.43;;;6.17;;
73672;SDS011;61972;19.480;-99.240;2023-09-19T00:50:17;8.30;;;6.32;;
73672;SDS011;61972;19.480;-99.240;2023-09-19T00:52:48;8.20;;;6.32;;
73672;SDS011;61972;19.480;-99.240;2023-09-19T00:55:16;7.45;;;5.80;;
73672;SDS011;61972;19.480;-99.240;2023-09-19T00:57:45;7.90;;;6.18;;
73672;SDS011;61972;19.480;-99.240;2023-09-19T01:00:12;8.40;;;6.60;;
73672;SDS011;61972;19.480;-99.240;2023-09-19T01:02:44;8.10;;;6.10;;
73672;SDS011;61972;19.480;-99.240;2023-09-19T01:05:11;8.30;;;5.70;;
73672;SDS011;61972;19.480;-99.240;2023-09-19T01:07:37;7.80;;;6.03;;
73672;SDS011;61972;19.480;-99.240;2023-09-19T01:10:11;8.00;;;6.00;;
73672;SDS011;61972;19.480;-99.240;2023-09-19T01:17:53;6.93;;;5.68;;
73672;SDS011;61972;19.480;-99.240;2023-09-19T01:23:11;7.93;;;5.90;;
73672;SDS011;61972;19.480;-99.240;2023-09-19T01:31:23;6.65;;;5.28;;
73672;SDS011;61972;19.480;-99.240;2023-09-19T01:33:56;7.38;;;5.57;;
73672;SDS011;61972;19.480;-99.240;2023-09-19T01:36:23;7.78;;;5.78;;
73672;SDS011;61972;19.480;-99.240;2023-09-19T01:38:50;6.33;;;5.00;;
73672;SDS011;61972;19.480;-99.240;2023-09-19T01:41:17;7.15;;;5.65;;
73672;SDS011;61972;19.480;-99.240;2023-09-19T01:44:04;7.57;;;5.70;;
73672;SDS011;61972;19.480;-99.240;2023-09-19T01:46:35;6.63;;;5.40;;
73672;SDS011;61972;19.480;-99.240;2023-09-19T01:49:11;7.07;;;5.40;;
73672;SDS011;61972;19.480;-99.240;2023-09-19T01:52:20;7.13;;;5.70;;
73672;SDS011;61972;19.480;-99.240;2023-09-19T01:54:52;8.45;;;6.10;;
73672;SDS011;61972;19.480;-99.240;2023-09-19T01:57:26;6.80;;;5.45;;
73672;SDS011;61972;19.480;-99.240;2023-09-19T02:00:02;7.22;;;5.32;;
73672;SDS011;61972;19.480;-99.240;2023-09-19T02:02:37;6.90;;;5.20;;
73672;SDS011;61972;19.480;-99.240;2023-09-19T02:05:05;7.83;;;5.43;;
73672;SDS011;61972;19.480;-99.240;2023-09-19T02:07:32;7.45;;;5.28;;
73672;SDS011;61972;19.480;-99.240;2023-09-19T02:09:58;7.15;;;5.45;;
73672;SDS011;61972;19.480;-99.240;2023-09-19T02:12:31;6.47;;;5.25;;
73672;SDS011;61972;19.480;-99.240;2023-09-19T02:15:01;6.75;;;5.20;;
73672;SDS011;61972;19.480;-99.240;2023-09-19T02:17:28;6.73;;;5.50;;
73672;SDS011;61972;19.480;-99.240;2023-09-19T02:19:56;6.90;;;5.30;;
73672;SDS011;61972;19.480;-99.240;2023-09-19T02:22:24;6.30;;;4.97;;
73672;SDS011;61972;19.480;-99.240;2023-09-19T02:24:50;7.68;;;5.60;;
73672;SDS011;61972;19.480;-99.240;2023-09-19T02:27:18;6.68;;;5.30;;
73672;SDS011;61972;19.480;-99.240;2023-09-19T02:29:44;7.03;;;5.07;;
73672;SDS011;61972;19.480;-99.240;2023-09-19T02:32:10;6.78;;;5.22;;
73672;SDS011;61972;19.480;-99.240;2023-09-19T02:34:36;7.10;;;5.32;;
73672;SDS011;61972;19.480;-99.240;2023-09-19T02:37:04;6.68;;;5.05;;
73672;SDS011;61972;19.480;-99.240;2023-09-19T02:39:32;7.43;;;4.93;;
73672;SDS011;61972;19.480;-99.240;2023-09-19T02:41:58;7.43;;;5.23;;
73672;SDS011;61972;19.480;-99.240;2023-09-19T02:44:24;6.28;;;5.00;;
73672;SDS011;61972;19.480;-99.240;2023-09-19T02:46:50;6.85;;;5.28;;
73672;SDS011;61972;19.480;-99.240;2023-09-19T02:49:17;6.18;;;4.55;;
73672;SDS011;61972;19.480;-99.240;2023-09-19T02:51:43;6.30;;;5.05;;
73672;SDS011;61972;19.480;-99.240;2023-09-19T02:54:11;6.77;;;5.03;;
73672;SDS011;61972;19.480;-99.240;2023-09-19T02:56:37;6.10;;;4.90;;
73672;SDS011;61972;19.480;-99.240;2023-09-19T02:59:03;6.97;;;4.88;;
73672;SDS011;61972;19.480;-99.240;2023-09-19T03:01:31;6.70;;;5.05;;
73672;SDS011;61972;19.480;-99.240;2023-09-19T03:03:58;6.85;;;5.20;;
73672;SDS011;61972;19.480;-99.240;2023-09-19T03:06:24;7.30;;;5.10;;
73672;SDS011;61972;19.480;-99.240;2023-09-19T03:08:50;6.53;;;4.82;;
73672;SDS011;61972;19.480;-99.240;2023-09-19T03:11:17;7.00;;;5.00;;
73672;SDS011;61972;19.480;-99.240;2023-09-19T03:13:54;6.82;;;4.72;;
73672;SDS011;61972;19.480;-99.240;2023-09-19T03:16:21;5.80;;;4.55;;
73672;SDS011;61972;19.480;-99.240;2023-09-19T03:18:47;6.57;;;4.83;;
73672;SDS011;61972;19.480;-99.240;2023-09-19T03:21:15;6.85;;;4.90;;
73672;SDS011;61972;19.480;-99.240;2023-09-19T03:23:42;6.20;;;4.90;;
73672;SDS011;61972;19.480;-99.240;2023-09-19T03:26:11;7.20;;;4.70;;
73672;SDS011;61972;19.480;-99.240;2023-09-19T03:28:38;6.25;;;4.95;;
73672;SDS011;61972;19.480;-99.240;2023-09-19T03:31:09;6.63;;;4.57;;
73672;SDS011;61972;19.480;-99.240;2023-09-19T03:33:37;6.53;;;4.60;;
73672;SDS011;61972;19.480;-99.240;2023-09-19T03:36:04;5.68;;;4.15;;
73672;SDS011;61972;19.480;-99.240;2023-09-19T03:38:30;6.28;;;4.95;;
73672;SDS011;61972;19.480;-99.240;2023-09-19T03:40:57;6.55;;;4.60;;
73672;SDS011;61972;19.480;-99.240;2023-09-19T03:43:24;5.60;;;4.40;;
73672;SDS011;61972;19.480;-99.240;2023-09-19T03:45:50;7.03;;;4.82;;
73672;SDS011;61972;19.480;-99.240;2023-09-19T03:48:19;6.60;;;4.90;;
73672;SDS011;61972;19.480;-99.240;2023-09-19T03:50:47;6.80;;;4.60;;
73672;SDS011;61972;19.480;-99.240;2023-09-19T03:53:13;5.90;;;4.53;;
73672;SDS011;61972;19.480;-99.240;2023-09-19T03:55:40;5.77;;;4.60;;
73672;SDS011;61972;19.480;-99.240;2023-09-19T03:58:06;5.68;;;4.13;;
73672;SDS011;61972;19.480;-99.240;2023-09-19T04:00:32;5.70;;;4.38;;
73672;SDS011;61972;19.480;-99.240;2023-09-19T04:02:59;5.25;;;4.13;;
73672;SDS011;61972;19.480;-99.240;2023-09-19T04:05:31;7.03;;;4.88;;
73672;SDS011;61972;19.480;-99.240;2023-09-19T04:07:57;5.80;;;4.30;;
73672;SDS011;61972;19.480;-99.240;2023-09-19T04:10:24;6.57;;;4.72;;
73672;SDS011;61972;19.480;-99.240;2023-09-19T04:12:50;5.70;;;4.30;;
73672;SDS011;61972;19.480;-99.240;2023-09-19T04:15:18;6.00;;;4.22;;
73672;SDS011;61972;19.480;-99.240;2023-09-19T04:17:45;5.43;;;4.18;;
73672;SDS011;61972;19.480;-99.240;2023-09-19T04:20:11;5.70;;;4.30;;
73672;SDS011;61972;19.480;-99.240;2023-09-19T04:22:41;6.03;;;4.43;;
73672;SDS011;61972;19.480;-99.240;2023-09-19T04:25:07;6.00;;;4.55;;
73672;SDS011;61972;19.480;-99.240;2023-09-19T04:27:33;5.47;;;3.97;;
73672;SDS011;61972;19.480;-99.240;2023-09-19T04:30:00;6.05;;;4.35;;
73672;SDS011;61972;19.480;-99.240;2023-09-19T04:32:34;5.40;;;4.10;;
73672;SDS011;61972;19.480;-99.240;2023-09-19T04:35:01;6.15;;;4.45;;
73672;SDS011;61972;19.480;-99.240;2023-09-19T04:37:31;5.63;;;4.25;;
73672;SDS011;61972;19.480;-99.240;2023-09-19T04:39:57;5.57;;;4.18;;
73672;SDS011;61972;19.480;-99.240;2023-09-19T04:42:24;6.20;;;4.63;;
73672;SDS011;61972;19.480;-99.240;2023-09-19T04:44:50;5.50;;;4.20;;
73672;SDS011;61972;19.480;-99.240;2023-09-19T04:47:18;5.60;;;4.40;;
73672;SDS011;61972;19.480;-99.240;2023-09-19T04:49:44;5.18;;;3.97;;
73672;SDS011;61972;19.480;-99.240;2023-09-19T04:52:11;5.05;;;3.83;;
73672;SDS011;61972;19.480;-99.240;2023-09-19T04:54:37;5.47;;;3.92;;
73672;SDS011;61972;19.480;-99.240;2023-09-19T04:57:03;5.37;;;4.00;;
73672;SDS011;61972;19.480;-99.240;2023-09-19T04:59:31;5.40;;;3.90;;
73672;SDS011;61972;19.480;-99.240;2023-09-19T05:01:57;5.57;;;4.28;;
73672;SDS011;61972;19.480;-99.240;2023-09-19T05:04:24;5.57;;;4.03;;
73672;SDS011;61972;19.480;-99.240;2023-09-19T05:06:50;5.57;;;4.38;;
73672;SDS011;61972;19.480;-99.240;2023-09-19T05:09:17;5.87;;;4.20;;
73672;SDS011;61972;19.480;-99.240;2023-09-19T05:11:45;5.10;;;3.92;;
73672;SDS011;61972;19.480;-99.240;2023-09-19T05:14:11;5.25;;;4.15;;
73672;SDS011;61972;19.480;-99.240;2023-09-19T05:16:37;5.10;;;3.78;;
73672;SDS011;61972;19.480;-99.240;2023-09-19T05:19:04;5.30;;;3.78;;
73672;SDS011;61972;19.480;-99.240;2023-09-19T05:21:30;5.30;;;3.90;;
73672;SDS011;61972;19.480;-99.240;2023-09-19T05:23:56;5.78;;;3.80;;
73672;SDS011;61972;19.480;-99.240;2023-09-19T05:26:23;5.38;;;4.10;;
73672;SDS011;61972;19.480;-99.240;2023-09-19T05:28:49;4.68;;;3.70;;
73672;SDS011;61972;19.480;-99.240;2023-09-19T05:31:15;4.65;;;3.63;;
73672;SDS011;61972;19.480;-99.240;2023-09-19T05:33:42;8.57;;;3.83;;
73672;SDS011;61972;19.480;-99.240;2023-09-19T05:36:08;4.90;;;3.63;;
73672;SDS011;61972;19.480;-99.240;2023-09-19T05:38:37;5.30;;;3.72;;
73672;SDS011;61972;19.480;-99.240;2023-09-19T05:41:06;5.25;;;3.80;;
73672;SDS011;61972;19.480;-99.240;2023-09-19T05:43:33;5.38;;;3.80;;
73672;SDS011;61972;19.480;-99.240;2023-09-19T05:46:02;6.17;;;3.90;;
73672;SDS011;61972;19.480;-99.240;2023-09-19T05:48:29;6.65;;;4.03;;
73672;SDS011;61972;19.480;-99.240;2023-09-19T05:50:55;5.75;;;3.40;;
73672;SDS011;61972;19.480;-99.240;2023-09-19T05:53:21;5.20;;;3.95;;
73672;SDS011;61972;19.480;-99.240;2023-09-19T05:55:48;7.38;;;4.18;;
73672;SDS011;61972;19.480;-99.240;2023-09-19T05:58:15;4.57;;;3.40;;
73672;SDS011;61972;19.480;-99.240;2023-09-19T06:00:42;7.50;;;3.83;;
73672;SDS011;61972;19.480;-99.240;2023-09-19T06:03:09;5.00;;;3.65;;
73672;SDS011;61972;19.480;-99.240;2023-09-19T06:05:39;5.10;;;3.90;;
73672;SDS011;61972;19.480;-99.240;2023-09-19T06:08:06;4.90;;;3.80;;
73672;SDS011;61972;19.480;-99.240;2023-09-19T06:10:33;4.53;;;3.33;;
73672;SDS011;61972;19.480;-99.240;2023-09-19T06:13:01;4.80;;;3.70;;
73672;SDS011;61972;19.480;-99.240;2023-09-19T06:15:30;5.05;;;3.50;;
73672;SDS011;61972;19.480;-99.240;2023-09-19T06:17:58;4.68;;;3.72;;
73672;SDS011;61972;19.480;-99.240;2023-09-19T06:20:27;4.40;;;3.53;;
73672;SDS011;61972;19.480;-99.240;2023-09-19T06:22:54;4.90;;;3.60;;
73672;SDS011;61972;19.480;-99.240;2023-09-19T06:25:20;5.20;;;3.60;;
73672;SDS011;61972;19.480;-99.240;2023-09-19T06:27:53;4.32;;;3.60;;
73672;SDS011;61972;19.480;-99.240;2023-09-19T06:30:21;4.75;;;3.72;;
73672;SDS011;61972;19.480;-99.240;2023-09-19T06:32:56;4.90;;;3.47;;
73672;SDS011;61972;19.480;-99.240;2023-09-19T06:35:23;4.73;;;3.67;;
73672;SDS011;61972;19.480;-99.240;2023-09-19T06:37:51;4.93;;;3.85;;
73672;SDS011;61972;19.480;-99.240;2023-09-19T06:40:18;4.30;;;3.10;;
73672;SDS011;61972;19.480;-99.240;2023-09-19T06:42:45;4.72;;;3.15;;
73672;SDS011;61972;19.480;-99.240;2023-09-19T06:45:13;4.63;;;3.63;;
73672;SDS011;61972;19.480;-99.240;2023-09-19T06:47:44;5.37;;;3.80;;
73672;SDS011;61972;19.480;-99.240;2023-09-19T06:50:17;5.18;;;3.67;;
73672;SDS011;61972;19.480;-99.240;2023-09-19T06:52:45;4.78;;;3.33;;
73672;SDS011;61972;19.480;-99.240;2023-09-19T06:55:18;7.57;;;3.33;;
73672;SDS011;61972;19.480;-99.240;2023-09-19T06:57:48;6.43;;;3.00;;
73672;SDS011;61972;19.480;-99.240;2023-09-19T07:00:15;4.80;;;2.97;;
73672;SDS011;61972;19.480;-99.240;2023-09-19T07:02:56;6.72;;;3.20;;
73672;SDS011;61972;19.480;-99.240;2023-09-19T07:05:34;4.90;;;2.90;;
73672;SDS011;61972;19.480;-99.240;2023-09-19T07:08:04;5.45;;;3.00;;
73672;SDS011;61972;19.480;-99.240;2023-09-19T07:13:53;4.50;;;2.70;;
73672;SDS011;61972;19.480;-99.240;2023-09-19T07:16:19;5.32;;;2.50;;
73672;SDS011;61972;19.480;-99.240;2023-09-19T07:18:55;4.53;;;2.80;;
73672;SDS011;61972;19.480;-99.240;2023-09-19T07:21:22;5.65;;;2.95;;
73672;SDS011;61972;19.480;-99.240;2023-09-19T07:23:48;4.15;;;2.78;;
73672;SDS011;61972;19.480;-99.240;2023-09-19T07:26:15;4.73;;;2.70;;
73672;SDS011;61972;19.480;-99.240;2023-09-19T07:28:42;4.22;;;2.55;;
73672;SDS011;61972;19.480;-99.240;2023-09-19T07:31:08;3.92;;;2.95;;
73672;SDS011;61972;19.480;-99.240;2023-09-19T07:33:35;4.10;;;2.40;;
73672;SDS011;61972;19.480;-99.240;2023-09-19T07:36:02;3.85;;;2.47;;
73672;SDS011;61972;19.480;-99.240;2023-09-19T07:38:28;5.03;;;2.60;;
73672;SDS011;61972;19.480;-99.240;2023-09-19T07:40:59;4.22;;;2.80;;
73672;SDS011;61972;19.480;-99.240;2023-09-19T07:43:27;3.90;;;2.60;;
73672;SDS011;61972;19.480;-99.240;2023-09-19T07:45:53;5.25;;;2.42;;
73672;SDS011;61972;19.480;-99.240;2023-09-19T07:48:20;3.63;;;2.50;;
73672;SDS011;61972;19.480;-99.240;2023-09-19T07:50:46;4.17;;;2.70;;
73672;SDS011;61972;19.480;-99.240;2023-09-19T07:53:12;5.60;;;2.40;;
73672;SDS011;61972;19.480;-99.240;2023-09-19T07:55:39;4.63;;;2.50;;
73672;SDS011;61972;19.480;-99.240;2023-09-19T07:58:06;3.75;;;2.63;;
73672;SDS011;61972;19.480;-99.240;2023-09-19T08:00:32;3.75;;;2.53;;
73672;SDS011;61972;19.480;-99.240;2023-09-19T08:03:00;3.90;;;2.53;;
73672;SDS011;61972;19.480;-99.240;2023-09-19T08:05:27;4.72;;;2.63;;
73672;SDS011;61972;19.480;-99.240;2023-09-19T08:07:54;3.88;;;2.50;;
73672;SDS011;61972;19.480;-99.240;2023-09-19T08:10:21;6.07;;;2.25;;
73672;SDS011;61972;19.480;-99.240;2023-09-19T08:12:48;3.95;;;2.40;;
73672;SDS011;61972;19.480;-99.240;2023-09-19T08:15:21;4.43;;;2.90;;
73672;SDS011;61972;19.480;-99.240;2023-09-19T08:17:48;3.83;;;2.53;;
73672;SDS011;61972;19.480;-99.240;2023-09-19T08:20:15;4.03;;;2.50;;
73672;SDS011;61972;19.480;-99.240;2023-09-19T08:22:49;3.70;;;2.35;;
73672;SDS011;61972;19.480;-99.240;2023-09-19T08:25:23;4.55;;;2.75;;
73672;SDS011;61972;19.480;-99.240;2023-09-19T08:27:51;3.67;;;2.27;;
73672;SDS011;61972;19.480;-99.240;2023-09-19T08:30:20;4.70;;;2.70;;
73672;SDS011;61972;19.480;-99.240;2023-09-19T08:33:01;4.65;;;2.70;;
73672;SDS011;61972;19.480;-99.240;2023-09-19T08:35:30;4.18;;;2.45;;
73672;SDS011;61972;19.480;-99.240;2023-09-19T08:37:56;3.60;;;2.30;;
73672;SDS011;61972;19.480;-99.240;2023-09-19T08:40:23;3.80;;;2.50;;
73672;SDS011;61972;19.480;-99.240;2023-09-19T08:42:50;4.93;;;2.50;;
73672;SDS011;61972;19.480;-99.240;2023-09-19T08:45:17;4.53;;;2.70;;
73672;SDS011;61972;19.480;-99.240;2023-09-19T08:47:46;4.43;;;2.50;;
73672;SDS011;61972;19.480;-99.240;2023-09-19T08:50:26;4.13;;;2.72;;
73672;SDS011;61972;19.480;-99.240;2023-09-19T08:52:55;4.43;;;2.80;;
73672;SDS011;61972;19.480;-99.240;2023-09-19T08:55:23;3.88;;;2.35;;
73672;SDS011;61972;19.480;-99.240;2023-09-19T08:57:57;5.35;;;2.67;;
73672;SDS011;61972;19.480;-99.240;2023-09-19T09:00:36;5.40;;;2.90;;
73672;SDS011;61972;19.480;-99.240;2023-09-19T09:03:03;3.72;;;2.65;;
73672;SDS011;61972;19.480;-99.240;2023-09-19T09:05:34;5.90;;;2.83;;
73672;SDS011;61972;19.480;-99.240;2023-09-19T09:08:01;4.50;;;3.08;;
73672;SDS011;61972;19.480;-99.240;2023-09-19T09:10:31;4.47;;;3.00;;
73672;SDS011;61972;19.480;-99.240;2023-09-19T09:12:58;4.50;;;2.90;;
73672;SDS011;61972;19.480;-99.240;2023-09-19T09:15:24;4.25;;;3.00;;
73672;SDS011;61972;19.480;-99.240;2023-09-19T09:17:50;5.20;;;3.20;;
73672;SDS011;61972;19.480;-99.240;2023-09-19T09:20:20;4.57;;;3.20;;
73672;SDS011;61972;19.480;-99.240;2023-09-19T09:22:53;5.22;;;3.25;;
73672;SDS011;61972;19.480;-99.240;2023-09-19T09:28:25;5.25;;;3.25;;
73672;SDS011;61972;19.480;-99.240;2023-09-19T09:30:53;8.00;;;3.13;;
73672;SDS011;61972;19.480;-99.240;2023-09-19T09:33:20;3.97;;;2.70;;
73672;SDS011;61972;19.480;-99.240;2023-09-19T09:35:54;5.10;;;3.20;;
73672;SDS011;61972;19.480;-99.240;2023-09-19T09:38:46;4.50;;;3.17;;
73672;SDS011;61972;19.480;-99.240;2023-09-19T09:41:14;5.30;;;3.40;;
73672;SDS011;61972;19.480;-99.240;2023-09-19T09:43:52;5.23;;;3.37;;
73672;SDS011;61972;19.480;-99.240;2023-09-19T09:46:20;5.38;;;3.35;;
73672;SDS011;61972;19.480;-99.240;2023-09-19T09:48:57;4.75;;;3.28;;
73672;SDS011;61972;19.480;-99.240;2023-09-19T09:52:09;4.93;;;3.22;;
73672;SDS011;61972;19.480;-99.240;2023-09-19T09:55:02;5.70;;;3.40;;
73672;SDS011;61972;19.480;-99.240;2023-09-19T09:57:30;7.07;;;3.73;;
73672;SDS011;61972;19.480;-99.240;2023-09-19T09:59:57;7.03;;;3.50;;
73672;SDS011;61972;19.480;-99.240;2023-09-19T10:02:54;8.07;;;3.17;;
73672;SDS011;61972;19.480;-99.240;2023-09-19T10:05:20;8.80;;;3.75;;
73672;SDS011;61972;19.480;-99.240;2023-09-19T10:07:52;10.30;;;3.83;;
73672;SDS011;61972;19.480;-99.240;2023-09-19T10:10:35;11.03;;;4.03;;
73672;SDS011;61972;19.480;-99.240;2023-09-19T10:13:05;8.45;;;3.60;;
73672;SDS011;61972;19.480;-99.240;2023-09-19T10:15:33;12.15;;;4.20;;
73672;SDS011;61972;19.480;-99.240;2023-09-19T10:18:01;10.43;;;4.20;;
73672;SDS011;61972;19.480;-99.240;2023-09-19T10:20:33;11.27;;;4.43;;
73672;SDS011;61972;19.480;-99.240;2023-09-19T10:23:05;10.60;;;4.20;;
73672;SDS011;61972;19.480;-99.240;2023-09-19T10:25:42;10.02;;;4.10;;
73672;SDS011;61972;19.480;-99.240;2023-09-19T10:28:13;10.40;;;3.97;;
73672;SDS011;61972;19.480;-99.240;2023-09-19T10:30:42;10.55;;;3.90;;
73672;SDS011;61972;19.480;-99.240;2023-09-19T10:33:14;10.75;;;4.25;;
73672;SDS011;61972;19.480;-99.240;2023-09-19T10:35:44;9.07;;;3.90;;
73672;SDS011;61972;19.480;-99.240;2023-09-19T10:38:13;9.57;;;3.80;;
73672;SDS011;61972;19.480;-99.240;2023-09-19T10:40:44;9.88;;;3.60;;
73672;SDS011;61972;19.480;-99.240;2023-09-19T10:43:17;8.93;;;3.78;;
73672;SDS011;61972;19.480;-99.240;2023-09-19T10:45:45;8.88;;;3.83;;
73672;SDS011;61972;19.480;-99.240;2023-09-19T10:48:15;9.80;;;4.07;;
73672;SDS011;61972;19.480;-99.240;2023-09-19T10:53:17;12.40;;;4.78;;
73672;SDS011;61972;19.480;-99.240;2023-09-19T10:55:51;9.20;;;4.13;;
73672;SDS011;61972;19.480;-99.240;2023-09-19T10:58:26;7.95;;;3.97;;
73672;SDS011;61972;19.480;-99.240;2023-09-19T11:01:00;7.17;;;3.57;;
73672;SDS011;61972;19.480;-99.240;2023-09-19T11:03:40;6.53;;;3.60;;
73672;SDS011;61972;19.480;-99.240;2023-09-19T11:06:14;8.45;;;3.88;;
73672;SDS011;61972;19.480;-99.240;2023-09-19T11:08:50;7.28;;;3.60;;
73672;SDS011;61972;19.480;-99.240;2023-09-19T11:20:32;10.38;;;3.60;;
73672;SDS011;61972;19.480;-99.240;2023-09-19T11:30:47;7.07;;;3.70;;
73672;SDS011;61972;19.480;-99.240;2023-09-19T11:33:21;7.03;;;3.83;;
73672;SDS011;61972;19.480;-99.240;2023-09-19T11:36:07;8.88;;;3.90;;
73672;SDS011;61972;19.480;-99.240;2023-09-19T11:43:52;6.60;;;3.72;;
73672;SDS011;61972;19.480;-99.240;2023-09-19T11:46:54;6.88;;;3.63;;
73672;SDS011;61972;19.480;-99.240;2023-09-19T11:49:31;7.25;;;4.00;;
73672;SDS011;61972;19.480;-99.240;2023-09-19T11:51:59;8.57;;;4.18;;
73672;SDS011;61972;19.480;-99.240;2023-09-19T11:54:31;7.97;;;3.87;;
73672;SDS011;61972;19.480;-99.240;2023-09-19T11:56:58;7.60;;;3.45;;
73672;SDS011;61972;19.480;-99.240;2023-09-19T11:59:26;7.45;;;3.80;;
73672;SDS011;61972;19.480;-99.240;2023-09-19T12:01:58;6.75;;;3.70;;
73672;SDS011;61972;19.480;-99.240;2023-09-19T12:04:39;7.10;;;3.70;;
73672;SDS011;61972;19.480;-99.240;2023-09-19T12:07:09;7.50;;;3.60;;
73672;SDS011;61972;19.480;-99.240;2023-09-19T12:09:46;5.78;;;3.58;;
73672;SDS011;61972;19.480;-99.240;2023-09-19T12:12:24;7.43;;;3.63;;
73672;SDS011;61972;19.480;-99.240;2023-09-19T12:14:56;5.47;;;3.40;;
73672;SDS011;61972;19.480;-99.240;2023-09-19T12:17:24;6.40;;;3.40;;
73672;SDS011;61972;19.480;-99.240;2023-09-19T12:20:10;7.67;;;4.10;;
73672;SDS011;61972;19.480;-99.240;2023-09-19T12:22:44;6.90;;;3.80;;
73672;SDS011;61972;19.480;-99.240;2023-09-19T12:25:14;6.07;;;3.90;;
73672;SDS011;61972;19.480;-99.240;2023-09-19T12:27:46;7.63;;;4.10;;
73672;SDS011;61972;19.480;-99.240;2023-09-19T12:30:13;7.18;;;3.80;;
73672;SDS011;61972;19.480;-99.240;2023-09-19T12:32:43;6.40;;;3.30;;
73672;SDS011;61972;19.480;-99.240;2023-09-19T12:35:10;7.68;;;4.10;;
73672;SDS011;61972;19.480;-99.240;2023-09-19T12:37:53;7.32;;;4.47;;
73672;SDS011;61972;19.480;-99.240;2023-09-19T12:40:21;7.00;;;4.07;;
73672;SDS011;61972;19.480;-99.240;2023-09-19T12:42:48;8.73;;;4.10;;
73672;SDS011;61972;19.480;-99.240;2023-09-19T12:45:15;7.37;;;3.97;;
73672;SDS011;61972;19.480;-99.240;2023-09-19T12:53:32;13.18;;;5.45;;
73672;SDS011;61972;19.480;-99.240;2023-09-19T12:56:08;14.18;;;5.28;;
73672;SDS011;61972;19.480;-99.240;2023-09-19T13:01:37;12.48;;;5.68;;
73672;SDS011;61972;19.480;-99.240;2023-09-19T13:04:20;11.00;;;4.78;;
73672;SDS011;61972;19.480;-99.240;2023-09-19T13:06:55;11.30;;;4.93;;
73672;SDS011;61972;19.480;-99.240;2023-09-19T13:09:26;10.60;;;5.28;;
73672;SDS011;61972;19.480;-99.240;2023-09-19T13:12:04;10.07;;;5.17;;
73672;SDS011;61972;19.480;-99.240;2023-09-19T13:14:32;9.20;;;5.45;;
73672;SDS011;61972;19.480;-99.240;2023-09-19T13:17:08;9.32;;;5.70;;
73672;SDS011;61972;19.480;-99.240;2023-09-19T13:25:25;8.63;;;4.87;;
73672;SDS011;61972;19.480;-99.240;2023-09-19T13:27:55;8.88;;;5.63;;
73672;SDS011;61972;19.480;-99.240;2023-09-19T13:30:23;8.48;;;5.32;;
73672;SDS011;61972;19.480;-99.240;2023-09-19T13:32:51;9.95;;;5.32;;
73672;SDS011;61972;19.480;-99.240;2023-09-19T13:35:19;8.98;;;5.75;;
73672;SDS011;61972;19.480;-99.240;2023-09-19T13:37:46;8.43;;;5.10;;
73672;SDS011;61972;19.480;-99.240;2023-09-19T13:40:17;8.40;;;5.25;;
73672;SDS011;61972;19.480;-99.240;2023-09-19T13:42:43;7.30;;;5.20;;
73672;SDS011;61972;19.480;-99.240;2023-09-19T13:45:09;8.85;;;5.20;;
73672;SDS011;61972;19.480;-99.240;2023-09-19T13:47:38;7.93;;;4.90;;
73672;SDS011;61972;19.480;-99.240;2023-09-19T13:50:04;10.70;;;5.40;;
73672;SDS011;61972;19.480;-99.240;2023-09-19T13:52:31;8.93;;;5.47;;
73672;SDS011;61972;19.480;-99.240;2023-09-19T13:54:58;8.23;;;4.85;;
73672;SDS011;61972;19.480;-99.240;2023-09-19T13:57:27;12.38;;;5.30;;
73672;SDS011;61972;19.480;-99.240;2023-09-19T13:59:54;9.05;;;5.05;;
73672;SDS011;61972;19.480;-99.240;2023-09-19T14:02:21;9.33;;;5.50;;
73672;SDS011;61972;19.480;-99.240;2023-09-19T14:04:51;7.07;;;4.93;;
73672;SDS011;61972;19.480;-99.240;2023-09-19T14:07:17;7.63;;;5.22;;
73672;SDS011;61972;19.480;-99.240;2023-09-19T14:09:45;6.93;;;4.75;;
73672;SDS011;61972;19.480;-99.240;2023-09-19T14:12:12;7.43;;;5.18;;
73672;SDS011;61972;19.480;-99.240;2023-09-19T14:14:39;6.27;;;4.67;;
73672;SDS011;61972;19.480;-99.240;2023-09-19T14:17:05;6.65;;;4.80;;
73672;SDS011;61972;19.480;-99.240;2023-09-19T14:19:32;6.50;;;4.47;;
73672;SDS011;61972;19.480;-99.240;2023-09-19T14:22:00;6.72;;;4.95;;
73672;SDS011;61972;19.480;-99.240;2023-09-19T14:24:32;7.43;;;4.82;;
73672;SDS011;61972;19.480;-99.240;2023-09-19T14:26:59;7.30;;;4.70;;
73672;SDS011;61972;19.480;-99.240;2023-09-19T14:29:25;6.40;;;4.78;;
73672;SDS011;61972;19.480;-99.240;2023-09-19T14:31:51;6.57;;;4.90;;
73672;SDS011;61972;19.480;-99.240;2023-09-19T14:34:17;7.15;;;5.10;;
73672;SDS011;61972;19.480;-99.240;2023-09-19T14:36:45;6.20;;;4.50;;
73672;SDS011;61972;19.480;-99.240;2023-09-19T14:39:11;7.63;;;4.90;;
73672;SDS011;61972;19.480;-99.240;2023-09-19T14:41:37;5.55;;;4.10;;
73672;SDS011;61972;19.480;-99.240;2023-09-19T14:44:04;5.93;;;4.20;;
73672;SDS011;61972;19.480;-99.240;2023-09-19T14:46:30;7.03;;;4.07;;
73672;SDS011;61972;19.480;-99.240;2023-09-19T14:48:56;6.97;;;4.60;;
73672;SDS011;61972;19.480;-99.240;2023-09-19T14:51:28;6.93;;;4.40;;
73672;SDS011;61972;19.480;-99.240;2023-09-19T14:53:55;5.85;;;4.10;;
73672;SDS011;61972;19.480;-99.240;2023-09-19T14:56:22;5.72;;;4.00;;
73672;SDS011;61972;19.480;-99.240;2023-09-19T14:58:49;6.90;;;4.35;;
73672;SDS011;61972;19.480;-99.240;2023-09-19T15:01:15;6.53;;;4.43;;
73672;SDS011;61972;19.480;-99.240;2023-09-19T15:03:41;8.83;;;5.00;;
73672;SDS011;61972;19.480;-99.240;2023-09-19T15:06:11;6.70;;;4.53;;
73672;SDS011;61972;19.480;-99.240;2023-09-19T15:08:42;6.35;;;4.25;;
73672;SDS011;61972;19.480;-99.240;2023-09-19T15:11:15;6.80;;;4.53;;
73672;SDS011;61972;19.480;-99.240;2023-09-19T15:13:46;6.20;;;4.53;;
73672;SDS011;61972;19.480;-99.240;2023-09-19T15:16:13;7.97;;;4.60;;
73672;SDS011;61972;19.480;-99.240;2023-09-19T15:18:40;8.38;;;4.68;;
73672;SDS011;61972;19.480;-99.240;2023-09-19T15:21:08;6.35;;;4.50;;
73672;SDS011;61972;19.480;-99.240;2023-09-19T15:23:36;6.30;;;4.90;;
73672;SDS011;61972;19.480;-99.240;2023-09-19T15:26:04;5.53;;;4.25;;
73672;SDS011;61972;19.480;-99.240;2023-09-19T15:28:31;5.97;;;4.20;;
73672;SDS011;61972;19.480;-99.240;2023-09-19T15:30:59;6.97;;;4.80;;
73672;SDS011;61972;19.480;-99.240;2023-09-19T15:33:26;5.53;;;4.07;;